sensor_id;sensor_type;location;lat;lon;timestamp;P1;durP1;ratioP1;P2;durP2;ratioP2
17947;SDS011;9099;47.958;11.366;2023-02-07T00:00:08;15.20;;;9.37;;
17947;SDS011;9099;47.958;11.366;2023-02-07T00:02:38;12.50;;;9.17;;
17947;SDS011;9099;47.958;11.366;2023-02-07T00:05:07;12.67;;;9.57;;
17947;SDS011;9099;47.958;11.366;2023-02-07T00:07:35;10.87;;;9.03;;
17947;SDS011;9099;47.958;11.366;2023-02-07T00:10:02;13.63;;;9.20;;
17947;SDS011;9099;47.958;11.366;2023-02-07T00:12:31;11.40;;;9.23;;
17947;SDS011;9099;47.958;11.366;2023-02-07T00:14:58;13.20;;;9.60;;
17947;SDS011;9099;47.958;11.366;2023-02-07T00:17:26;12.60;;;9.13;;
17947;SDS011;9099;47.958;11.366;2023-02-07T00:19:53;12.93;;;10.77;;
17947;SDS011;9099;47.958;11.366;2023-02-07T00:22:20;15.87;;;10.90;;
17947;SDS011;9099;47.958;11.366;2023-02-07T00:24:47;13.03;;;10.63;;
17947;SDS011;9099;47.958;11.366;2023-02-07T00:27:14;17.37;;;11.17;;
17947;SDS011;9099;47.958;11.366;2023-02-07T00:29:43;15.90;;;11.27;;
17947;SDS011;9099;47.958;11.366;2023-02-07T00:32:09;12.47;;;9.83;;
17947;SDS011;9099;47.958;11.366;2023-02-07T00:34:37;16.20;;;12.20;;
17947;SDS011;9099;47.958;11.366;2023-02-07T00:37:04;15.13;;;11.87;;
17947;SDS011;9099;47.958;11.366;2023-02-07T00:39:31;14.53;;;11.90;;
17947;SDS011;9099;47.958;11.366;2023-02-07T00:41:58;15.33;;;12.23;;
17947;SDS011;9099;47.958;11.366;2023-02-07T00:44:25;13.23;;;10.47;;
17947;SDS011;9099;47.958;11.366;2023-02-07T00:46:53;16.10;;;11.10;;
17947;SDS011;9099;47.958;11.366;2023-02-07T00:49:20;17.20;;;11.77;;
17947;SDS011;9099;47.958;11.366;2023-02-07T00:51:47;15.47;;;12.20;;
17947;SDS011;9099;47.958;11.366;2023-02-07T00:54:14;18.00;;;13.40;;
17947;SDS011;9099;47.958;11.366;2023-02-07T00:56:41;19.27;;;11.90;;
17947;SDS011;9099;47.958;11.366;2023-02-07T00:59:08;15.20;;;12.10;;
17947;SDS011;9099;47.958;11.366;2023-02-07T01:01:35;17.90;;;12.60;;
17947;SDS011;9099;47.958;11.366;2023-02-07T01:04:03;16.20;;;12.23;;
17947;SDS011;9099;47.958;11.366;2023-02-07T01:06:30;18.23;;;12.17;;
17947;SDS011;9099;47.958;11.366;2023-02-07T01:08:58;15.83;;;11.63;;
17947;SDS011;9099;47.958;11.366;2023-02-07T01:11:26;16.17;;;12.37;;
17947;SDS011;9099;47.958;11.366;2023-02-07T01:13:54;17.23;;;12.43;;
17947;SDS011;9099;47.958;11.366;2023-02-07T01:16:22;16.10;;;11.47;;
17947;SDS011;9099;47.958;11.366;2023-02-07T01:18:50;20.00;;;12.37;;
17947;SDS011;9099;47.958;11.366;2023-02-07T01:21:19;16.77;;;11.83;;
17947;SDS011;9099;47.958;11.366;2023-02-07T01:23:47;15.13;;;11.63;;
17947;SDS011;9099;47.958;11.366;2023-02-07T01:26:14;20.23;;;12.57;;
17947;SDS011;9099;47.958;11.366;2023-02-07T01:28:41;14.27;;;11.50;;
17947;SDS011;9099;47.958;11.366;2023-02-07T01:31:09;16.00;;;12.10;;
17947;SDS011;9099;47.958;11.366;2023-02-07T01:33:37;15.17;;;12.17;;
17947;SDS011;9099;47.958;11.366;2023-02-07T01:36:04;16.37;;;12.83;;
17947;SDS011;9099;47.958;11.366;2023-02-07T01:38:33;16.03;;;12.13;;
17947;SDS011;9099;47.958;11.366;2023-02-07T01:41:01;14.57;;;11.23;;
17947;SDS011;9099;47.958;11.366;2023-02-07T01:43:28;15.37;;;11.87;;
17947;SDS011;9099;47.958;11.366;2023-02-07T01:45:55;15.33;;;12.17;;
17947;SDS011;9099;47.958;11.366;2023-02-07T01:48:22;14.63;;;11.23;;
17947;SDS011;9099;47.958;11.366;2023-02-07T01:50:53;16.83;;;11.87;;
17947;SDS011;9099;47.958;11.366;2023-02-07T01:53:24;16.37;;;11.63;;
17947;SDS011;9099;47.958;11.366;2023-02-07T01:55:54;15.63;;;11.73;;
17947;SDS011;9099;47.958;11.366;2023-02-07T01:58:25;13.20;;;11.00;;
17947;SDS011;9099;47.958;11.366;2023-02-07T02:00:52;13.37;;;10.90;;
17947;SDS011;9099;47.958;11.366;2023-02-07T02:03:19;14.73;;;11.07;;
17947;SDS011;9099;47.958;11.366;2023-02-07T02:05:47;13.83;;;11.30;;
17947;SDS011;9099;47.958;11.366;2023-02-07T02:08:18;16.03;;;11.27;;
17947;SDS011;9099;47.958;11.366;2023-02-07T02:10:56;14.53;;;12.07;;
17947;SDS011;9099;47.958;11.366;2023-02-07T02:13:35;15.80;;;11.70;;
17947;SDS011;9099;47.958;11.366;2023-02-07T02:16:12;16.90;;;11.93;;
17947;SDS011;9099;47.958;11.366;2023-02-07T02:18:53;15.27;;;12.07;;
17947;SDS011;9099;47.958;11.366;2023-02-07T02:21:41;13.10;;;9.97;;
17947;SDS011;9099;47.958;11.366;2023-02-07T02:24:39;15.93;;;11.33;;
17947;SDS011;9099;47.958;11.366;2023-02-07T02:27:25;14.13;;;10.63;;
17947;SDS011;9099;47.958;11.366;2023-02-07T02:30:13;16.57;;;10.57;;
17947;SDS011;9099;47.958;11.366;2023-02-07T02:33:18;14.53;;;10.70;;
17947;SDS011;9099;47.958;11.366;2023-02-07T02:35:54;14.73;;;10.97;;
17947;SDS011;9099;47.958;11.366;2023-02-07T02:38:30;14.27;;;10.47;;
17947;SDS011;9099;47.958;11.366;2023-02-07T02:41:00;17.87;;;10.90;;
17947;SDS011;9099;47.958;11.366;2023-02-07T02:43:33;13.83;;;10.63;;
17947;SDS011;9099;47.958;11.366;2023-02-07T02:46:04;14.73;;;9.77;;
17947;SDS011;9099;47.958;11.366;2023-02-07T02:48:36;14.80;;;10.07;;
17947;SDS011;9099;47.958;11.366;2023-02-07T02:51:04;13.13;;;9.77;;
17947;SDS011;9099;47.958;11.366;2023-02-07T02:53:31;13.37;;;10.03;;
17947;SDS011;9099;47.958;11.366;2023-02-07T02:56:11;14.90;;;10.30;;
17947;SDS011;9099;47.958;11.366;2023-02-07T02:58:48;15.07;;;10.83;;
17947;SDS011;9099;47.958;11.366;2023-02-07T03:01:26;13.30;;;10.10;;
17947;SDS011;9099;47.958;11.366;2023-02-07T03:04:18;13.73;;;10.07;;
17947;SDS011;9099;47.958;11.366;2023-02-07T03:07:10;14.80;;;10.27;;
17947;SDS011;9099;47.958;11.366;2023-02-07T03:09:47;13.23;;;9.90;;
17947;SDS011;9099;47.958;11.366;2023-02-07T03:12:26;15.17;;;10.37;;
17947;SDS011;9099;47.958;11.366;2023-02-07T03:15:00;12.57;;;9.23;;
17947;SDS011;9099;47.958;11.366;2023-02-07T03:17:30;12.90;;;9.73;;
17947;SDS011;9099;47.958;11.366;2023-02-07T03:20:05;11.20;;;8.83;;
17947;SDS011;9099;47.958;11.366;2023-02-07T03:22:37;13.37;;;10.07;;
17947;SDS011;9099;47.958;11.366;2023-02-07T03:25:05;15.10;;;9.70;;
17947;SDS011;9099;47.958;11.366;2023-02-07T03:27:33;14.13;;;9.40;;
17947;SDS011;9099;47.958;11.366;2023-02-07T03:30:03;9.87;;;8.07;;
17947;SDS011;9099;47.958;11.366;2023-02-07T03:32:34;12.77;;;8.57;;
17947;SDS011;9099;47.958;11.366;2023-02-07T03:35:05;11.23;;;8.57;;
17947;SDS011;9099;47.958;11.366;2023-02-07T03:37:39;10.87;;;7.80;;
17947;SDS011;9099;47.958;11.366;2023-02-07T03:40:09;9.10;;;7.60;;
17947;SDS011;9099;47.958;11.366;2023-02-07T03:42:37;13.33;;;9.67;;
17947;SDS011;9099;47.958;11.366;2023-02-07T03:45:08;11.10;;;8.27;;
17947;SDS011;9099;47.958;11.366;2023-02-07T03:47:39;10.93;;;8.97;;
17947;SDS011;9099;47.958;11.366;2023-02-07T03:50:08;12.00;;;8.73;;
17947;SDS011;9099;47.958;11.366;2023-02-07T03:52:35;13.10;;;9.63;;
17947;SDS011;9099;47.958;11.366;2023-02-07T03:55:02;9.63;;;8.33;;
17947;SDS011;9099;47.958;11.366;2023-02-07T03:57:29;13.97;;;9.20;;
17947;SDS011;9099;47.958;11.366;2023-02-07T03:59:56;13.10;;;9.43;;
17947;SDS011;9099;47.958;11.366;2023-02-07T04:02:23;12.83;;;9.43;;
17947;SDS011;9099;47.958;11.366;2023-02-07T04:04:50;14.37;;;9.70;;
17947;SDS011;9099;47.958;11.366;2023-02-07T04:07:18;12.90;;;9.13;;
17947;SDS011;9099;47.958;11.366;2023-02-07T04:09:45;15.13;;;10.57;;
17947;SDS011;9099;47.958;11.366;2023-02-07T04:12:12;14.10;;;9.87;;
17947;SDS011;9099;47.958;11.366;2023-02-07T04:14:38;12.83;;;9.50;;
17947;SDS011;9099;47.958;11.366;2023-02-07T04:17:05;12.10;;;9.03;;
17947;SDS011;9099;47.958;11.366;2023-02-07T04:19:32;15.97;;;9.97;;
17947;SDS011;9099;47.958;11.366;2023-02-07T04:21:59;13.40;;;9.87;;
17947;SDS011;9099;47.958;11.366;2023-02-07T04:24:27;15.47;;;10.33;;
17947;SDS011;9099;47.958;11.366;2023-02-07T04:26:55;14.53;;;9.57;;
17947;SDS011;9099;47.958;11.366;2023-02-07T04:29:22;15.90;;;10.60;;
17947;SDS011;9099;47.958;11.366;2023-02-07T04:31:49;13.67;;;10.03;;
17947;SDS011;9099;47.958;11.366;2023-02-07T04:34:16;15.63;;;9.70;;
17947;SDS011;9099;47.958;11.366;2023-02-07T04:36:43;15.40;;;10.77;;
17947;SDS011;9099;47.958;11.366;2023-02-07T04:39:10;13.53;;;9.77;;
17947;SDS011;9099;47.958;11.366;2023-02-07T04:41:38;12.47;;;9.30;;
17947;SDS011;9099;47.958;11.366;2023-02-07T04:44:05;15.10;;;9.93;;
17947;SDS011;9099;47.958;11.366;2023-02-07T04:46:32;15.17;;;10.10;;
17947;SDS011;9099;47.958;11.366;2023-02-07T04:48:59;15.33;;;10.70;;
17947;SDS011;9099;47.958;11.366;2023-02-07T04:51:26;14.20;;;10.60;;
17947;SDS011;9099;47.958;11.366;2023-02-07T04:53:52;14.03;;;10.70;;
17947;SDS011;9099;47.958;11.366;2023-02-07T04:56:20;13.73;;;9.57;;
17947;SDS011;9099;47.958;11.366;2023-02-07T04:58:48;13.27;;;9.40;;
17947;SDS011;9099;47.958;11.366;2023-02-07T05:01:15;14.73;;;10.13;;
17947;SDS011;9099;47.958;11.366;2023-02-07T05:03:42;15.43;;;10.37;;
17947;SDS011;9099;47.958;11.366;2023-02-07T05:06:09;12.23;;;9.30;;
17947;SDS011;9099;47.958;11.366;2023-02-07T05:08:37;12.60;;;9.97;;
17947;SDS011;9099;47.958;11.366;2023-02-07T05:11:04;13.33;;;10.07;;
17947;SDS011;9099;47.958;11.366;2023-02-07T05:13:32;14.30;;;8.87;;
17947;SDS011;9099;47.958;11.366;2023-02-07T05:16:01;11.83;;;8.90;;
17947;SDS011;9099;47.958;11.366;2023-02-07T05:18:29;10.10;;;8.23;;
17947;SDS011;9099;47.958;11.366;2023-02-07T05:20:56;13.80;;;9.47;;
17947;SDS011;9099;47.958;11.366;2023-02-07T05:23:23;13.77;;;9.27;;
17947;SDS011;9099;47.958;11.366;2023-02-07T05:25:50;12.73;;;9.43;;
17947;SDS011;9099;47.958;11.366;2023-02-07T05:28:17;12.33;;;9.03;;
17947;SDS011;9099;47.958;11.366;2023-02-07T05:30:44;13.10;;;9.53;;
17947;SDS011;9099;47.958;11.366;2023-02-07T05:33:12;13.67;;;9.30;;
17947;SDS011;9099;47.958;11.366;2023-02-07T05:35:39;14.77;;;9.70;;
17947;SDS011;9099;47.958;11.366;2023-02-07T05:38:07;12.77;;;9.13;;
17947;SDS011;9099;47.958;11.366;2023-02-07T05:40:36;13.10;;;8.83;;
17947;SDS011;9099;47.958;11.366;2023-02-07T05:43:05;11.43;;;8.30;;
17947;SDS011;9099;47.958;11.366;2023-02-07T05:45:32;14.40;;;9.80;;
17947;SDS011;9099;47.958;11.366;2023-02-07T05:47:59;20.43;;;10.93;;
17947;SDS011;9099;47.958;11.366;2023-02-07T05:50:28;14.20;;;9.37;;
17947;SDS011;9099;47.958;11.366;2023-02-07T05:52:54;13.67;;;9.23;;
17947;SDS011;9099;47.958;11.366;2023-02-07T05:55:21;11.00;;;8.27;;
17947;SDS011;9099;47.958;11.366;2023-02-07T05:57:49;12.27;;;9.23;;
17947;SDS011;9099;47.958;11.366;2023-02-07T06:00:16;12.40;;;9.57;;
17947;SDS011;9099;47.958;11.366;2023-02-07T06:02:44;14.67;;;9.10;;
17947;SDS011;9099;47.958;11.366;2023-02-07T06:05:12;11.93;;;9.10;;
17947;SDS011;9099;47.958;11.366;2023-02-07T06:07:41;15.97;;;11.77;;
17947;SDS011;9099;47.958;11.366;2023-02-07T06:10:09;17.23;;;10.77;;
17947;SDS011;9099;47.958;11.366;2023-02-07T06:12:36;16.80;;;10.80;;
17947;SDS011;9099;47.958;11.366;2023-02-07T06:15:03;15.83;;;11.10;;
17947;SDS011;9099;47.958;11.366;2023-02-07T06:17:30;17.43;;;11.67;;
17947;SDS011;9099;47.958;11.366;2023-02-07T06:19:57;14.47;;;10.00;;
17947;SDS011;9099;47.958;11.366;2023-02-07T06:22:24;15.60;;;11.03;;
17947;SDS011;9099;47.958;11.366;2023-02-07T06:24:53;14.50;;;10.03;;
17947;SDS011;9099;47.958;11.366;2023-02-07T06:27:19;14.67;;;9.87;;
17947;SDS011;9099;47.958;11.366;2023-02-07T06:29:46;15.73;;;10.90;;
17947;SDS011;9099;47.958;11.366;2023-02-07T06:32:13;14.40;;;10.20;;
17947;SDS011;9099;47.958;11.366;2023-02-07T06:34:40;16.67;;;11.77;;
17947;SDS011;9099;47.958;11.366;2023-02-07T06:37:07;13.23;;;9.10;;
17947;SDS011;9099;47.958;11.366;2023-02-07T06:39:34;15.23;;;10.30;;
17947;SDS011;9099;47.958;11.366;2023-02-07T06:42:02;15.70;;;9.70;;
17947;SDS011;9099;47.958;11.366;2023-02-07T06:44:30;13.30;;;8.93;;
17947;SDS011;9099;47.958;11.366;2023-02-07T06:46:56;14.30;;;9.57;;
17947;SDS011;9099;47.958;11.366;2023-02-07T06:49:23;14.37;;;9.47;;
17947;SDS011;9099;47.958;11.366;2023-02-07T06:51:50;14.43;;;10.03;;
17947;SDS011;9099;47.958;11.366;2023-02-07T06:54:17;13.27;;;9.57;;
17947;SDS011;9099;47.958;11.366;2023-02-07T06:56:44;13.90;;;9.50;;
17947;SDS011;9099;47.958;11.366;2023-02-07T06:59:12;15.13;;;9.73;;
17947;SDS011;9099;47.958;11.366;2023-02-07T07:01:39;17.53;;;11.20;;
17947;SDS011;9099;47.958;11.366;2023-02-07T07:04:06;16.57;;;10.37;;
17947;SDS011;9099;47.958;11.366;2023-02-07T07:06:33;14.87;;;10.90;;
17947;SDS011;9099;47.958;11.366;2023-02-07T07:09:00;13.03;;;10.03;;
17947;SDS011;9099;47.958;11.366;2023-02-07T07:11:26;15.07;;;9.57;;
17947;SDS011;9099;47.958;11.366;2023-02-07T07:13:53;13.40;;;9.67;;
17947;SDS011;9099;47.958;11.366;2023-02-07T07:16:22;10.47;;;9.33;;
17947;SDS011;9099;47.958;11.366;2023-02-07T07:18:48;13.00;;;9.07;;
17947;SDS011;9099;47.958;11.366;2023-02-07T07:21:15;11.20;;;9.97;;
17947;SDS011;9099;47.958;11.366;2023-02-07T07:23:42;10.40;;;9.00;;
17947;SDS011;9099;47.958;11.366;2023-02-07T07:26:09;9.60;;;8.47;;
17947;SDS011;9099;47.958;11.366;2023-02-07T07:28:36;9.83;;;8.13;;
17947;SDS011;9099;47.958;11.366;2023-02-07T07:31:03;9.00;;;8.10;;
17947;SDS011;9099;47.958;11.366;2023-02-07T07:33:32;9.07;;;8.18;;
17947;SDS011;9099;47.958;11.366;2023-02-07T07:36:00;9.50;;;7.90;;
17947;SDS011;9099;47.958;11.366;2023-02-07T07:38:27;9.15;;;8.15;;
17947;SDS011;9099;47.958;11.366;2023-02-07T07:40:54;8.65;;;7.85;;
17947;SDS011;9099;47.958;11.366;2023-02-07T07:43:21;9.00;;;7.88;;
17947;SDS011;9099;47.958;11.366;2023-02-07T07:45:50;8.90;;;8.00;;
17947;SDS011;9099;47.958;11.366;2023-02-07T07:48:17;7.90;;;7.10;;
17947;SDS011;9099;47.958;11.366;2023-02-07T07:50:46;8.32;;;7.60;;
17947;SDS011;9099;47.958;11.366;2023-02-07T07:53:13;8.98;;;8.10;;
17947;SDS011;9099;47.958;11.366;2023-02-07T07:55:40;8.82;;;7.80;;
17947;SDS011;9099;47.958;11.366;2023-02-07T07:58:07;7.80;;;7.10;;
17947;SDS011;9099;47.958;11.366;2023-02-07T08:00:34;7.95;;;7.30;;
17947;SDS011;9099;47.958;11.366;2023-02-07T08:03:01;8.93;;;8.10;;
17947;SDS011;9099;47.958;11.366;2023-02-07T08:05:28;8.70;;;8.00;;
17947;SDS011;9099;47.958;11.366;2023-02-07T08:07:56;9.98;;;8.70;;
17947;SDS011;9099;47.958;11.366;2023-02-07T08:10:23;8.60;;;7.80;;
17947;SDS011;9099;47.958;11.366;2023-02-07T08:12:49;8.57;;;7.88;;
17947;SDS011;9099;47.958;11.366;2023-02-07T08:15:16;7.57;;;6.90;;
17947;SDS011;9099;47.958;11.366;2023-02-07T08:17:43;8.30;;;7.60;;
17947;SDS011;9099;47.958;11.366;2023-02-07T08:20:10;8.95;;;8.15;;
17947;SDS011;9099;47.958;11.366;2023-02-07T08:22:38;8.85;;;8.10;;
17947;SDS011;9099;47.958;11.366;2023-02-07T08:25:07;8.57;;;7.88;;
17947;SDS011;9099;47.958;11.366;2023-02-07T08:27:34;8.13;;;7.43;;
17947;SDS011;9099;47.958;11.366;2023-02-07T08:30:00;8.13;;;7.53;;
17947;SDS011;9099;47.958;11.366;2023-02-07T08:32:27;9.48;;;8.68;;
17947;SDS011;9099;47.958;11.366;2023-02-07T08:34:54;8.95;;;8.15;;
17947;SDS011;9099;47.958;11.366;2023-02-07T08:37:21;9.23;;;8.32;;
17947;SDS011;9099;47.958;11.366;2023-02-07T08:39:48;8.23;;;7.47;;
17947;SDS011;9099;47.958;11.366;2023-02-07T08:42:18;10.10;;;9.10;;
17947;SDS011;9099;47.958;11.366;2023-02-07T08:44:45;8.65;;;7.95;;
17947;SDS011;9099;47.958;11.366;2023-02-07T08:47:12;9.98;;;8.98;;
17947;SDS011;9099;47.958;11.366;2023-02-07T08:49:39;9.20;;;8.40;;
17947;SDS011;9099;47.958;11.366;2023-02-07T08:52:06;9.57;;;8.77;;
17947;SDS011;9099;47.958;11.366;2023-02-07T08:54:33;9.68;;;8.88;;
17947;SDS011;9099;47.958;11.366;2023-02-07T08:56:59;9.50;;;8.68;;
17947;SDS011;9099;47.958;11.366;2023-02-07T08:59:28;9.82;;;8.93;;
17947;SDS011;9099;47.958;11.366;2023-02-07T09:01:55;9.40;;;8.60;;
17947;SDS011;9099;47.958;11.366;2023-02-07T09:04:21;9.50;;;8.75;;
17947;SDS011;9099;47.958;11.366;2023-02-07T09:06:48;9.35;;;8.48;;
17947;SDS011;9099;47.958;11.366;2023-02-07T09:09:15;9.98;;;9.07;;
17947;SDS011;9099;47.958;11.366;2023-02-07T09:11:42;9.20;;;8.50;;
17947;SDS011;9099;47.958;11.366;2023-02-07T09:14:09;9.52;;;8.73;;
17947;SDS011;9099;47.958;11.366;2023-02-07T09:16:37;9.35;;;8.65;;
17947;SDS011;9099;47.958;11.366;2023-02-07T09:19:04;9.38;;;8.52;;
17947;SDS011;9099;47.958;11.366;2023-02-07T09:21:31;8.80;;;8.02;;
17947;SDS011;9099;47.958;11.366;2023-02-07T09:23:58;8.88;;;8.18;;
17947;SDS011;9099;47.958;11.366;2023-02-07T09:26:25;9.63;;;8.63;;
17947;SDS011;9099;47.958;11.366;2023-02-07T09:28:53;7.95;;;7.22;;
17947;SDS011;9099;47.958;11.366;2023-02-07T09:31:20;9.13;;;8.40;;
17947;SDS011;9099;47.958;11.366;2023-02-07T09:33:49;8.50;;;7.80;;
17947;SDS011;9099;47.958;11.366;2023-02-07T09:36:17;8.52;;;7.82;;
17947;SDS011;9099;47.958;11.366;2023-02-07T09:38:45;8.77;;;7.97;;
17947;SDS011;9099;47.958;11.366;2023-02-07T09:41:14;9.15;;;8.35;;
17947;SDS011;9099;47.958;11.366;2023-02-07T09:44:02;8.27;;;7.60;;
17947;SDS011;9099;47.958;11.366;2023-02-07T09:46:33;9.40;;;8.57;;
17947;SDS011;9099;47.958;11.366;2023-02-07T09:49:05;8.60;;;7.95;;
17947;SDS011;9099;47.958;11.366;2023-02-07T09:51:38;9.50;;;8.63;;
17947;SDS011;9099;47.958;11.366;2023-02-07T09:54:06;9.27;;;8.45;;
17947;SDS011;9099;47.958;11.366;2023-02-07T09:56:43;9.25;;;8.40;;
17947;SDS011;9099;47.958;11.366;2023-02-07T09:59:14;9.02;;;8.30;;
17947;SDS011;9099;47.958;11.366;2023-02-07T10:01:47;9.07;;;8.27;;
17947;SDS011;9099;47.958;11.366;2023-02-07T10:04:24;8.48;;;7.80;;
17947;SDS011;9099;47.958;11.366;2023-02-07T10:06:55;9.40;;;8.60;;
17947;SDS011;9099;47.958;11.366;2023-02-07T10:09:24;8.63;;;7.93;;
17947;SDS011;9099;47.958;11.366;2023-02-07T10:11:55;9.90;;;8.95;;
17947;SDS011;9099;47.958;11.366;2023-02-07T10:14:32;9.30;;;8.45;;
17947;SDS011;9099;47.958;11.366;2023-02-07T10:17:08;8.48;;;7.78;;
17947;SDS011;9099;47.958;11.366;2023-02-07T10:19:51;9.25;;;8.45;;
17947;SDS011;9099;47.958;11.366;2023-02-07T10:22:29;9.10;;;8.20;;
17947;SDS011;9099;47.958;11.366;2023-02-07T10:25:14;8.80;;;8.00;;
17947;SDS011;9099;47.958;11.366;2023-02-07T10:27:52;9.20;;;8.38;;
17947;SDS011;9099;47.958;11.366;2023-02-07T10:30:27;9.52;;;8.40;;
17947;SDS011;9099;47.958;11.366;2023-02-07T10:32:57;9.25;;;7.88;;
17947;SDS011;9099;47.958;11.366;2023-02-07T10:35:30;8.23;;;7.53;;
17947;SDS011;9099;47.958;11.366;2023-02-07T10:38:00;8.25;;;7.60;;
17947;SDS011;9099;47.958;11.366;2023-02-07T10:40:29;8.60;;;7.85;;
17947;SDS011;9099;47.958;11.366;2023-02-07T10:43:01;8.05;;;7.25;;
17947;SDS011;9099;47.958;11.366;2023-02-07T10:45:29;8.45;;;7.68;;
17947;SDS011;9099;47.958;11.366;2023-02-07T10:47:56;8.80;;;7.72;;
17947;SDS011;9099;47.958;11.366;2023-02-07T10:50:24;7.47;;;6.88;;
17947;SDS011;9099;47.958;11.366;2023-02-07T10:52:53;8.13;;;7.43;;
17947;SDS011;9099;47.958;11.366;2023-02-07T10:55:32;9.75;;;6.55;;
17947;SDS011;9099;47.958;11.366;2023-02-07T10:58:02;8.02;;;7.28;;
17947;SDS011;9099;47.958;11.366;2023-02-07T11:00:29;7.50;;;6.68;;
17947;SDS011;9099;47.958;11.366;2023-02-07T11:02:59;7.85;;;6.65;;
17947;SDS011;9099;47.958;11.366;2023-02-07T11:05:35;7.85;;;7.15;;
17947;SDS011;9099;47.958;11.366;2023-02-07T11:08:17;7.80;;;7.20;;
17947;SDS011;9099;47.958;11.366;2023-02-07T11:10:47;6.85;;;6.15;;
17947;SDS011;9099;47.958;11.366;2023-02-07T11:13:15;8.10;;;7.45;;
17947;SDS011;9099;47.958;11.366;2023-02-07T11:15:45;7.90;;;6.88;;
17947;SDS011;9099;47.958;11.366;2023-02-07T11:21:06;7.43;;;6.55;;
17947;SDS011;9099;47.958;11.366;2023-02-07T11:23:49;8.10;;;7.28;;
17947;SDS011;9099;47.958;11.366;2023-02-07T11:26:17;8.32;;;7.53;;
17947;SDS011;9099;47.958;11.366;2023-02-07T11:28:45;7.90;;;7.20;;
17947;SDS011;9099;47.958;11.366;2023-02-07T11:31:16;7.43;;;6.78;;
17947;SDS011;9099;47.958;11.366;2023-02-07T11:33:44;7.15;;;6.65;;
17947;SDS011;9099;47.958;11.366;2023-02-07T11:36:19;8.45;;;7.65;;
17947;SDS011;9099;47.958;11.366;2023-02-07T11:38:53;7.68;;;6.97;;
17947;SDS011;9099;47.958;11.366;2023-02-07T11:41:21;7.72;;;7.05;;
17947;SDS011;9099;47.958;11.366;2023-02-07T11:43:50;8.35;;;7.55;;
17947;SDS011;9099;47.958;11.366;2023-02-07T11:46:22;7.85;;;7.07;;
17947;SDS011;9099;47.958;11.366;2023-02-07T11:48:56;7.22;;;6.60;;
17947;SDS011;9099;47.958;11.366;2023-02-07T11:51:23;7.35;;;6.68;;
17947;SDS011;9099;47.958;11.366;2023-02-07T11:53:53;6.85;;;6.20;;
17947;SDS011;9099;47.958;11.366;2023-02-07T11:56:25;7.53;;;5.90;;
17947;SDS011;9099;47.958;11.366;2023-02-07T11:58:57;6.70;;;6.15;;
17947;SDS011;9099;47.958;11.366;2023-02-07T12:01:25;6.57;;;6.03;;
17947;SDS011;9099;47.958;11.366;2023-02-07T12:03:55;6.28;;;5.78;;
17947;SDS011;9099;47.958;11.366;2023-02-07T12:06:27;5.80;;;5.32;;
17947;SDS011;9099;47.958;11.366;2023-02-07T12:09:01;7.88;;;5.65;;
17947;SDS011;9099;47.958;11.366;2023-02-07T12:11:32;6.03;;;5.47;;
17947;SDS011;9099;47.958;11.366;2023-02-07T12:14:04;10.25;;;5.65;;
17947;SDS011;9099;47.958;11.366;2023-02-07T12:16:38;5.43;;;4.95;;
17947;SDS011;9099;47.958;11.366;2023-02-07T12:19:10;5.30;;;4.80;;
17947;SDS011;9099;47.958;11.366;2023-02-07T12:21:45;5.05;;;4.65;;
17947;SDS011;9099;47.958;11.366;2023-02-07T12:24:22;5.47;;;4.82;;
17947;SDS011;9099;47.958;11.366;2023-02-07T12:26:54;5.38;;;4.60;;
17947;SDS011;9099;47.958;11.366;2023-02-07T12:29:29;8.00;;;5.30;;
17947;SDS011;9099;47.958;11.366;2023-02-07T12:32:07;5.43;;;4.93;;
17947;SDS011;9099;47.958;11.366;2023-02-07T12:34:42;5.13;;;4.70;;
17947;SDS011;9099;47.958;11.366;2023-02-07T12:37:16;7.72;;;5.40;;
17947;SDS011;9099;47.958;11.366;2023-02-07T12:39:51;8.73;;;5.20;;
17947;SDS011;9099;47.958;11.366;2023-02-07T12:42:28;9.15;;;4.95;;
17947;SDS011;9099;47.958;11.366;2023-02-07T12:45:02;5.20;;;4.70;;
17947;SDS011;9099;47.958;11.366;2023-02-07T12:47:35;4.88;;;4.47;;
17947;SDS011;9099;47.958;11.366;2023-02-07T12:50:14;7.18;;;4.82;;
17947;SDS011;9099;47.958;11.366;2023-02-07T12:53:00;5.38;;;4.88;;
17947;SDS011;9099;47.958;11.366;2023-02-07T12:55:41;7.50;;;4.55;;
17947;SDS011;9099;47.958;11.366;2023-02-07T12:58:22;10.13;;;4.55;;
17947;SDS011;9099;47.958;11.366;2023-02-07T13:01:00;4.88;;;4.40;;
17947;SDS011;9099;47.958;11.366;2023-02-07T13:03:41;5.65;;;4.57;;
17947;SDS011;9099;47.958;11.366;2023-02-07T13:06:36;4.70;;;3.90;;
17947;SDS011;9099;47.958;11.366;2023-02-07T13:09:10;4.80;;;4.30;;
17947;SDS011;9099;47.958;11.366;2023-02-07T13:11:44;4.85;;;4.35;;
17947;SDS011;9099;47.958;11.366;2023-02-07T13:14:23;5.53;;;4.75;;
17947;SDS011;9099;47.958;11.366;2023-02-07T13:17:04;4.60;;;4.20;;
17947;SDS011;9099;47.958;11.366;2023-02-07T13:19:46;4.93;;;4.43;;
17947;SDS011;9099;47.958;11.366;2023-02-07T13:22:19;5.13;;;4.50;;
17947;SDS011;9099;47.958;11.366;2023-02-07T13:24:53;5.82;;;4.95;;
17947;SDS011;9099;47.958;11.366;2023-02-07T13:27:22;6.57;;;5.15;;
17947;SDS011;9099;47.958;11.366;2023-02-07T13:29:52;5.07;;;4.68;;
17947;SDS011;9099;47.958;11.366;2023-02-07T13:32:21;5.15;;;4.75;;
17947;SDS011;9099;47.958;11.366;2023-02-07T13:34:50;5.50;;;5.00;;
17947;SDS011;9099;47.958;11.366;2023-02-07T13:37:23;5.45;;;4.85;;
17947;SDS011;9099;47.958;11.366;2023-02-07T13:39:59;4.93;;;4.53;;
17947;SDS011;9099;47.958;11.366;2023-02-07T13:42:32;5.10;;;4.60;;
17947;SDS011;9099;47.958;11.366;2023-02-07T13:45:09;5.93;;;4.90;;
17947;SDS011;9099;47.958;11.366;2023-02-07T13:47:47;6.50;;;5.18;;
17947;SDS011;9099;47.958;11.366;2023-02-07T13:50:34;10.38;;;5.32;;
17947;SDS011;9099;47.958;11.366;2023-02-07T13:53:09;4.75;;;4.13;;
17947;SDS011;9099;47.958;11.366;2023-02-07T13:55:52;4.72;;;4.20;;
17947;SDS011;9099;47.958;11.366;2023-02-07T14:01:37;11.25;;;4.57;;
17947;SDS011;9099;47.958;11.366;2023-02-07T14:04:16;6.47;;;4.97;;
17947;SDS011;9099;47.958;11.366;2023-02-07T14:06:53;5.22;;;4.68;;
17947;SDS011;9099;47.958;11.366;2023-02-07T14:09:30;6.10;;;4.45;;
17947;SDS011;9099;47.958;11.366;2023-02-07T14:12:00;5.38;;;4.40;;
17947;SDS011;9099;47.958;11.366;2023-02-07T14:14:30;4.68;;;4.32;;
17947;SDS011;9099;47.958;11.366;2023-02-07T14:16:58;8.00;;;5.40;;
17947;SDS011;9099;47.958;11.366;2023-02-07T14:22:14;8.15;;;5.90;;
17947;SDS011;9099;47.958;11.366;2023-02-07T14:30:36;7.43;;;4.20;;
17947;SDS011;9099;47.958;11.366;2023-02-07T14:33:08;4.78;;;4.22;;
17947;SDS011;9099;47.958;11.366;2023-02-07T14:35:37;6.07;;;4.18;;
17947;SDS011;9099;47.958;11.366;2023-02-07T14:38:28;5.07;;;4.35;;
17947;SDS011;9099;47.958;11.366;2023-02-07T14:41:00;4.65;;;4.15;;
17947;SDS011;9099;47.958;11.366;2023-02-07T14:43:33;5.95;;;4.10;;
17947;SDS011;9099;47.958;11.366;2023-02-07T14:46:09;10.43;;;4.35;;
17947;SDS011;9099;47.958;11.366;2023-02-07T14:48:47;7.93;;;4.22;;
17947;SDS011;9099;47.958;11.366;2023-02-07T14:51:18;6.00;;;4.30;;
17947;SDS011;9099;47.958;11.366;2023-02-07T14:53:49;5.13;;;4.30;;
17947;SDS011;9099;47.958;11.366;2023-02-07T14:56:26;4.47;;;4.07;;
17947;SDS011;9099;47.958;11.366;2023-02-07T14:59:02;5.25;;;4.80;;
17947;SDS011;9099;47.958;11.366;2023-02-07T15:01:31;6.13;;;4.90;;
17947;SDS011;9099;47.958;11.366;2023-02-07T15:04:01;4.95;;;4.55;;
17947;SDS011;9099;47.958;11.366;2023-02-07T15:06:34;6.18;;;4.68;;
17947;SDS011;9099;47.958;11.366;2023-02-07T15:09:02;5.50;;;4.97;;
17947;SDS011;9099;47.958;11.366;2023-02-07T15:11:30;8.80;;;4.32;;